Bookmark and Share
Track history (hours):
 

Promitheas

Last reported at 2014-Apr-20 11:05 UTC. Time now 2014-Apr-21 15:10 UTC.
Position N 37°43' E 009°04'.

Length 249 m; draft 12 m.

Type: Tanker. MMSI: 240547000.

NotesDate/timePositionNaut miles runAvg speedWind from/ knotsBaromVisibWave heightAir tempDewpointWater temp
2014-Apr-20 11:05N 37°43' E 009°04'2212.4
2014-Apr-20 09:18N 37°41' E 009°32'1013.0
2014-Apr-20 08:33N 37°40' E 009°44'2512.7
2014-Apr-20 06:33N 37°39' E 010°17'1312.4
2014-Apr-20 05:32N 37°37' E 010°32'1211.8
2014-Apr-20 04:33N 37°34' E 010°46'8811.9
2014-Apr-19 21:10N 36°56' E 012°26'812.6
2014-Apr-19 20:34N 36°54' E 012°35'1312.7
2014-Apr-19 19:34N 36°50' E 012°50'1312.5
2014-Apr-19 18:32N 36°45' E 013°05'3012.1
2014-Apr-19 16:03N 36°35' E 013°40'912.3
2014-Apr-19 15:21N 36°32' E 013°50'  
2014-Apr-12 13:25N 36°38' E 013°16'4712.1
2014-Apr-12 09:33N 36°54' E 012°21'1313.3
2014-Apr-12 08:33N 36°59' E 012°06'1513.5
2014-Apr-12 07:27N 37°06' E 011°49'1213.2
2014-Apr-12 06:33N 37°12' E 011°36'1313.4
2014-Apr-12 05:34N 37°18' E 011°21'1413.5
2014-Apr-12 04:34N 37°25' E 011°06'1413.8
2014-Apr-12 03:34N 37°31' E 010°51'1413.7
2014-Apr-12 02:34N 37°37' E 010°35'1413.9
2014-Apr-12 01:33N 37°42' E 010°19'1413.6
2014-Apr-12 00:33N 37°46' E 010°03'1313.4
2014-Apr-11 23:33N 37°49' E 009°46'1413.6
2014-Apr-11 22:32N 37°52' E 009°29'1913.7
2014-Apr-11 21:09N 37°56' E 009°05'813.5
2014-Apr-11 20:33N 37°57' E 008°55'1313.1
2014-Apr-11 19:33N 37°54' E 008°39'1413.2
2014-Apr-11 18:32N 37°52' E 008°22'1913.1
2014-Apr-11 17:03N 37°48' E 007°58'8212.5
2014-Apr-11 10:29N 37°34' E 006°16'2412.0
2014-Apr-11 08:31N 37°29' E 005°47'1312.9
2014-Apr-11 07:30N 37°27' E 005°31'2310.9
2014-Apr-11 05:20N 37°23' E 005°02'1213.1
2014-Apr-11 04:23N 37°20' E 004°46'1113.2
2014-Apr-11 03:33N 37°18' E 004°33'1313.2
2014-Apr-11 02:33N 37°16' E 004°16'1313.4
2014-Apr-11 01:33N 37°14' E 003°60'1313.5
2014-Apr-11 00:33N 37°11' E 003°43'1514.6
2014-Apr-10 23:33N 37°08' E 003°25'1413.8
2014-Apr-10 22:31N 37°06' E 003°07'1313.5
2014-Apr-10 21:33N 37°04' E 002°51'1313.3
2014-Apr-10 20:33N 37°01' E 002°35'  

Dump ship's entire track history

sailing weather and tide predictions

Promitheas — SYIJ — position and weather